sensor_id;sensor_type;location;lat;lon;timestamp;temperature;humidity
32865;DHT22;19219;44.500;11.188;2023-04-24T00:02:05;16.90;99.90
32865;DHT22;19219;44.500;11.188;2023-04-24T00:04:32;16.90;99.90
32865;DHT22;19219;44.500;11.188;2023-04-24T00:06:57;17.00;99.90
32865;DHT22;19219;44.500;11.188;2023-04-24T00:09:25;17.00;99.90
32865;DHT22;19219;44.500;11.188;2023-04-24T00:11:52;16.90;99.90
32865;DHT22;19219;44.500;11.188;2023-04-24T00:14:17;17.00;99.90
32865;DHT22;19219;44.500;11.188;2023-04-24T00:16:43;17.00;99.90
32865;DHT22;19219;44.500;11.188;2023-04-24T00:19:09;16.90;99.90
32865;DHT22;19219;44.500;11.188;2023-04-24T00:21:34;16.90;99.90
32865;DHT22;19219;44.500;11.188;2023-04-24T00:24:00;16.80;99.90
32865;DHT22;19219;44.500;11.188;2023-04-24T00:26:26;16.70;99.90
32865;DHT22;19219;44.500;11.188;2023-04-24T00:28:51;16.70;99.90
32865;DHT22;19219;44.500;11.188;2023-04-24T00:31:17;16.70;99.90
32865;DHT22;19219;44.500;11.188;2023-04-24T00:33:43;16.70;99.90
32865;DHT22;19219;44.500;11.188;2023-04-24T00:36:08;16.70;99.90
32865;DHT22;19219;44.500;11.188;2023-04-24T00:38:34;16.80;99.90
32865;DHT22;19219;44.500;11.188;2023-04-24T00:41:00;16.80;99.90
32865;DHT22;19219;44.500;11.188;2023-04-24T00:43:26;16.90;99.90
32865;DHT22;19219;44.500;11.188;2023-04-24T00:45:51;16.90;99.90
32865;DHT22;19219;44.500;11.188;2023-04-24T00:48:17;16.90;99.90
32865;DHT22;19219;44.500;11.188;2023-04-24T00:50:43;16.90;99.90
32865;DHT22;19219;44.500;11.188;2023-04-24T00:53:09;16.90;99.90
32865;DHT22;19219;44.500;11.188;2023-04-24T00:55:35;16.90;99.90
32865;DHT22;19219;44.500;11.188;2023-04-24T00:58:02;16.90;99.90
32865;DHT22;19219;44.500;11.188;2023-04-24T01:00:29;16.90;99.90
32865;DHT22;19219;44.500;11.188;2023-04-24T01:02:55;16.80;99.90
32865;DHT22;19219;44.500;11.188;2023-04-24T01:05:23;16.80;99.90
32865;DHT22;19219;44.500;11.188;2023-04-24T01:07:49;16.80;99.90
32865;DHT22;19219;44.500;11.188;2023-04-24T01:10:15;16.80;99.90
32865;DHT22;19219;44.500;11.188;2023-04-24T01:12:41;16.90;99.90
32865;DHT22;19219;44.500;11.188;2023-04-24T01:15:07;17.00;99.90
32865;DHT22;19219;44.500;11.188;2023-04-24T01:17:33;17.00;99.90
32865;DHT22;19219;44.500;11.188;2023-04-24T01:19:59;17.10;99.90
32865;DHT22;19219;44.500;11.188;2023-04-24T01:22:26;17.10;99.90
32865;DHT22;19219;44.500;11.188;2023-04-24T01:24:53;17.10;99.90
32865;DHT22;19219;44.500;11.188;2023-04-24T01:27:19;17.10;99.90
32865;DHT22;19219;44.500;11.188;2023-04-24T01:29:45;17.00;99.90
32865;DHT22;19219;44.500;11.188;2023-04-24T01:32:13;17.10;99.90
32865;DHT22;19219;44.500;11.188;2023-04-24T01:34:38;17.10;99.90
32865;DHT22;19219;44.500;11.188;2023-04-24T01:37:05;17.10;99.90
32865;DHT22;19219;44.500;11.188;2023-04-24T01:39:31;17.10;99.90
32865;DHT22;19219;44.500;11.188;2023-04-24T01:41:57;17.10;99.90
32865;DHT22;19219;44.500;11.188;2023-04-24T01:44:23;17.10;99.90
32865;DHT22;19219;44.500;11.188;2023-04-24T01:46:48;17.10;99.90
32865;DHT22;19219;44.500;11.188;2023-04-24T01:49:14;17.20;99.90
32865;DHT22;19219;44.500;11.188;2023-04-24T01:51:40;17.20;99.90
32865;DHT22;19219;44.500;11.188;2023-04-24T01:54:06;17.30;99.90
32865;DHT22;19219;44.500;11.188;2023-04-24T01:56:33;17.30;99.90
32865;DHT22;19219;44.500;11.188;2023-04-24T01:59:03;17.30;99.90
32865;DHT22;19219;44.500;11.188;2023-04-24T02:01:36;17.30;99.90
32865;DHT22;19219;44.500;11.188;2023-04-24T02:04:03;17.40;99.90
32865;DHT22;19219;44.500;11.188;2023-04-24T02:06:29;17.40;99.90
32865;DHT22;19219;44.500;11.188;2023-04-24T02:08:58;17.40;99.90
32865;DHT22;19219;44.500;11.188;2023-04-24T02:11:24;17.40;99.90
32865;DHT22;19219;44.500;11.188;2023-04-24T02:13:50;17.40;99.90
32865;DHT22;19219;44.500;11.188;2023-04-24T02:16:17;17.40;99.90
32865;DHT22;19219;44.500;11.188;2023-04-24T02:18:43;17.40;99.90
32865;DHT22;19219;44.500;11.188;2023-04-24T02:21:09;17.30;99.90
32865;DHT22;19219;44.500;11.188;2023-04-24T02:23:34;17.30;99.90
32865;DHT22;19219;44.500;11.188;2023-04-24T02:26:00;17.30;99.90
32865;DHT22;19219;44.500;11.188;2023-04-24T02:28:26;17.40;99.90
32865;DHT22;19219;44.500;11.188;2023-04-24T02:30:51;17.30;99.90
32865;DHT22;19219;44.500;11.188;2023-04-24T02:33:17;17.30;99.90
32865;DHT22;19219;44.500;11.188;2023-04-24T02:35:43;17.30;99.90
32865;DHT22;19219;44.500;11.188;2023-04-24T02:38:08;17.30;99.90
32865;DHT22;19219;44.500;11.188;2023-04-24T02:40:34;17.30;99.90
32865;DHT22;19219;44.500;11.188;2023-04-24T02:43:00;17.20;99.90
32865;DHT22;19219;44.500;11.188;2023-04-24T02:45:25;17.20;99.90
32865;DHT22;19219;44.500;11.188;2023-04-24T02:47:51;17.20;99.90
32865;DHT22;19219;44.500;11.188;2023-04-24T02:50:17;17.20;99.90
32865;DHT22;19219;44.500;11.188;2023-04-24T02:52:42;17.20;99.90
32865;DHT22;19219;44.500;11.188;2023-04-24T02:55:08;17.20;99.90
32865;DHT22;19219;44.500;11.188;2023-04-24T02:57:34;17.20;99.90
32865;DHT22;19219;44.500;11.188;2023-04-24T02:59:59;17.30;99.90
32865;DHT22;19219;44.500;11.188;2023-04-24T03:02:25;17.30;99.90
32865;DHT22;19219;44.500;11.188;2023-04-24T03:04:51;17.30;99.90
32865;DHT22;19219;44.500;11.188;2023-04-24T03:07:16;17.20;99.90
32865;DHT22;19219;44.500;11.188;2023-04-24T03:09:42;17.10;99.90
32865;DHT22;19219;44.500;11.188;2023-04-24T03:12:08;16.90;99.90
32865;DHT22;19219;44.500;11.188;2023-04-24T03:14:34;16.80;99.90
32865;DHT22;19219;44.500;11.188;2023-04-24T03:17:00;16.70;99.90
32865;DHT22;19219;44.500;11.188;2023-04-24T03:19:25;16.60;99.90
32865;DHT22;19219;44.500;11.188;2023-04-24T03:21:51;16.50;99.90
32865;DHT22;19219;44.500;11.188;2023-04-24T03:24:17;16.30;99.90
32865;DHT22;19219;44.500;11.188;2023-04-24T03:26:42;16.20;99.90
32865;DHT22;19219;44.500;11.188;2023-04-24T03:29:08;16.00;99.90
32865;DHT22;19219;44.500;11.188;2023-04-24T03:31:33;15.90;99.90
32865;DHT22;19219;44.500;11.188;2023-04-24T03:33:59;15.90;99.90
32865;DHT22;19219;44.500;11.188;2023-04-24T03:36:25;15.70;99.90
32865;DHT22;19219;44.500;11.188;2023-04-24T03:38:51;15.40;99.90
32865;DHT22;19219;44.500;11.188;2023-04-24T03:41:17;15.30;99.90
32865;DHT22;19219;44.500;11.188;2023-04-24T03:43:43;15.20;99.90
32865;DHT22;19219;44.500;11.188;2023-04-24T03:46:08;15.20;99.90
32865;DHT22;19219;44.500;11.188;2023-04-24T03:48:35;15.20;99.90
32865;DHT22;19219;44.500;11.188;2023-04-24T03:51:00;15.20;99.90
32865;DHT22;19219;44.500;11.188;2023-04-24T03:53:26;15.30;99.90
32865;DHT22;19219;44.500;11.188;2023-04-24T03:55:53;15.30;99.90
32865;DHT22;19219;44.500;11.188;2023-04-24T03:58:19;15.30;99.90
32865;DHT22;19219;44.500;11.188;2023-04-24T04:00:44;15.20;99.90
32865;DHT22;19219;44.500;11.188;2023-04-24T04:03:13;15.20;99.90
32865;DHT22;19219;44.500;11.188;2023-04-24T04:05:40;15.10;99.90
32865;DHT22;19219;44.500;11.188;2023-04-24T04:08:05;15.00;99.90
32865;DHT22;19219;44.500;11.188;2023-04-24T04:10:31;15.00;99.90
32865;DHT22;19219;44.500;11.188;2023-04-24T04:12:57;15.10;99.90
32865;DHT22;19219;44.500;11.188;2023-04-24T04:15:22;15.10;99.90
32865;DHT22;19219;44.500;11.188;2023-04-24T04:17:48;15.10;99.90
32865;DHT22;19219;44.500;11.188;2023-04-24T04:20:15;15.10;99.90
32865;DHT22;19219;44.500;11.188;2023-04-24T04:22:40;15.10;99.90
32865;DHT22;19219;44.500;11.188;2023-04-24T04:25:06;15.00;99.90
32865;DHT22;19219;44.500;11.188;2023-04-24T04:27:33;15.00;99.90
32865;DHT22;19219;44.500;11.188;2023-04-24T04:30:02;15.00;99.90
32865;DHT22;19219;44.500;11.188;2023-04-24T04:32:31;14.90;99.90
32865;DHT22;19219;44.500;11.188;2023-04-24T04:34:58;14.90;99.90
32865;DHT22;19219;44.500;11.188;2023-04-24T04:37:32;14.90;99.90
32865;DHT22;19219;44.500;11.188;2023-04-24T04:39:59;14.80;99.90
32865;DHT22;19219;44.500;11.188;2023-04-24T04:42:27;14.80;99.90
32865;DHT22;19219;44.500;11.188;2023-04-24T04:44:53;14.90;99.90
32865;DHT22;19219;44.500;11.188;2023-04-24T04:47:21;15.00;99.90
32865;DHT22;19219;44.500;11.188;2023-04-24T04:49:50;15.00;99.90
32865;DHT22;19219;44.500;11.188;2023-04-24T04:52:17;15.00;99.90
32865;DHT22;19219;44.500;11.188;2023-04-24T04:54:43;14.90;99.90
32865;DHT22;19219;44.500;11.188;2023-04-24T04:57:09;14.90;99.90
32865;DHT22;19219;44.500;11.188;2023-04-24T04:59:35;15.00;99.90
32865;DHT22;19219;44.500;11.188;2023-04-24T05:02:01;15.10;99.90
32865;DHT22;19219;44.500;11.188;2023-04-24T05:04:26;15.20;99.90
32865;DHT22;19219;44.500;11.188;2023-04-24T05:06:52;15.10;99.90
32865;DHT22;19219;44.500;11.188;2023-04-24T05:09:18;15.10;99.90
32865;DHT22;19219;44.500;11.188;2023-04-24T05:11:44;15.10;99.90
32865;DHT22;19219;44.500;11.188;2023-04-24T05:14:10;15.00;99.90
32865;DHT22;19219;44.500;11.188;2023-04-24T05:16:38;15.10;99.90
32865;DHT22;19219;44.500;11.188;2023-04-24T05:19:03;15.10;99.90
32865;DHT22;19219;44.500;11.188;2023-04-24T05:21:29;15.10;99.90
32865;DHT22;19219;44.500;11.188;2023-04-24T05:23:55;15.10;99.90
32865;DHT22;19219;44.500;11.188;2023-04-24T05:26:20;15.00;99.90
32865;DHT22;19219;44.500;11.188;2023-04-24T05:28:46;15.00;99.90
32865;DHT22;19219;44.500;11.188;2023-04-24T05:31:11;15.00;99.90
32865;DHT22;19219;44.500;11.188;2023-04-24T05:33:37;15.10;99.90
32865;DHT22;19219;44.500;11.188;2023-04-24T05:36:03;15.10;99.90
32865;DHT22;19219;44.500;11.188;2023-04-24T05:38:30;15.10;99.90
32865;DHT22;19219;44.500;11.188;2023-04-24T05:40:56;15.20;99.90
32865;DHT22;19219;44.500;11.188;2023-04-24T05:43:22;15.30;99.90
32865;DHT22;19219;44.500;11.188;2023-04-24T05:45:47;15.30;99.90
32865;DHT22;19219;44.500;11.188;2023-04-24T05:48:13;15.20;99.90
32865;DHT22;19219;44.500;11.188;2023-04-24T05:50:39;15.30;99.90
32865;DHT22;19219;44.500;11.188;2023-04-24T05:53:05;15.40;99.90
32865;DHT22;19219;44.500;11.188;2023-04-24T05:55:32;15.40;99.90
32865;DHT22;19219;44.500;11.188;2023-04-24T05:57:58;15.40;99.90
32865;DHT22;19219;44.500;11.188;2023-04-24T06:00:24;15.40;99.90
32865;DHT22;19219;44.500;11.188;2023-04-24T06:02:50;15.50;99.90
32865;DHT22;19219;44.500;11.188;2023-04-24T06:05:16;15.40;99.90
32865;DHT22;19219;44.500;11.188;2023-04-24T06:07:43;15.40;99.90
32865;DHT22;19219;44.500;11.188;2023-04-24T06:10:09;15.40;99.90
32865;DHT22;19219;44.500;11.188;2023-04-24T06:12:35;15.50;99.90
32865;DHT22;19219;44.500;11.188;2023-04-24T06:15:02;15.60;99.90
32865;DHT22;19219;44.500;11.188;2023-04-24T06:17:27;15.70;99.90
32865;DHT22;19219;44.500;11.188;2023-04-24T06:19:53;15.70;99.90
32865;DHT22;19219;44.500;11.188;2023-04-24T06:22:19;15.70;99.90
32865;DHT22;19219;44.500;11.188;2023-04-24T06:24:44;15.70;99.90
32865;DHT22;19219;44.500;11.188;2023-04-24T06:27:10;15.90;99.90
32865;DHT22;19219;44.500;11.188;2023-04-24T06:29:36;16.00;99.90
32865;DHT22;19219;44.500;11.188;2023-04-24T06:32:02;16.00;99.90
32865;DHT22;19219;44.500;11.188;2023-04-24T06:34:28;15.90;99.90
32865;DHT22;19219;44.500;11.188;2023-04-24T06:36:54;16.00;99.90
32865;DHT22;19219;44.500;11.188;2023-04-24T06:39:20;16.10;99.90
32865;DHT22;19219;44.500;11.188;2023-04-24T06:41:46;16.40;99.90
32865;DHT22;19219;44.500;11.188;2023-04-24T06:44:11;16.70;99.90
32865;DHT22;19219;44.500;11.188;2023-04-24T06:46:37;17.00;99.90
32865;DHT22;19219;44.500;11.188;2023-04-24T06:49:03;17.80;99.90
32865;DHT22;19219;44.500;11.188;2023-04-24T06:51:28;18.50;99.90
32865;DHT22;19219;44.500;11.188;2023-04-24T06:53:54;19.10;99.90
32865;DHT22;19219;44.500;11.188;2023-04-24T06:56:22;19.70;99.90
32865;DHT22;19219;44.500;11.188;2023-04-24T06:58:47;20.00;99.90
32865;DHT22;19219;44.500;11.188;2023-04-24T07:01:13;20.10;99.90
32865;DHT22;19219;44.500;11.188;2023-04-24T07:03:39;19.90;99.90
32865;DHT22;19219;44.500;11.188;2023-04-24T07:06:05;19.80;99.90
32865;DHT22;19219;44.500;11.188;2023-04-24T07:08:31;19.80;99.90
32865;DHT22;19219;44.500;11.188;2023-04-24T07:10:58;19.60;99.90
32865;DHT22;19219;44.500;11.188;2023-04-24T07:13:24;19.40;99.90
32865;DHT22;19219;44.500;11.188;2023-04-24T07:15:50;19.20;99.90
32865;DHT22;19219;44.500;11.188;2023-04-24T07:18:17;19.20;99.90
32865;DHT22;19219;44.500;11.188;2023-04-24T07:20:43;19.50;99.90
32865;DHT22;19219;44.500;11.188;2023-04-24T07:23:09;19.70;99.90
32865;DHT22;19219;44.500;11.188;2023-04-24T07:25:35;20.30;99.90
32865;DHT22;19219;44.500;11.188;2023-04-24T07:28:01;20.90;99.90
32865;DHT22;19219;44.500;11.188;2023-04-24T07:30:26;21.10;99.90
32865;DHT22;19219;44.500;11.188;2023-04-24T07:32:54;21.70;99.90
32865;DHT22;19219;44.500;11.188;2023-04-24T07:35:21;22.30;99.90
32865;DHT22;19219;44.500;11.188;2023-04-24T07:37:47;23.00;99.90
32865;DHT22;19219;44.500;11.188;2023-04-24T07:40:13;23.70;99.90
32865;DHT22;19219;44.500;11.188;2023-04-24T07:42:39;24.50;99.90
32865;DHT22;19219;44.500;11.188;2023-04-24T07:45:05;25.80;99.90
32865;DHT22;19219;44.500;11.188;2023-04-24T07:47:32;27.00;99.90
32865;DHT22;19219;44.500;11.188;2023-04-24T07:49:58;28.30;99.40
32865;DHT22;19219;44.500;11.188;2023-04-24T07:52:24;29.00;96.70
32865;DHT22;19219;44.500;11.188;2023-04-24T07:54:50;28.50;94.90
32865;DHT22;19219;44.500;11.188;2023-04-24T07:57:18;27.40;94.60
32865;DHT22;19219;44.500;11.188;2023-04-24T07:59:44;26.60;94.90
32865;DHT22;19219;44.500;11.188;2023-04-24T08:02:09;25.80;96.40
32865;DHT22;19219;44.500;11.188;2023-04-24T08:04:35;25.10;98.60
32865;DHT22;19219;44.500;11.188;2023-04-24T08:07:01;25.10;98.30
32865;DHT22;19219;44.500;11.188;2023-04-24T08:09:26;24.90;98.40
32865;DHT22;19219;44.500;11.188;2023-04-24T08:11:52;24.80;99.30
32865;DHT22;19219;44.500;11.188;2023-04-24T08:14:18;25.00;99.80
32865;DHT22;19219;44.500;11.188;2023-04-24T08:16:44;25.00;99.70
32865;DHT22;19219;44.500;11.188;2023-04-24T08:19:10;25.10;99.60
32865;DHT22;19219;44.500;11.188;2023-04-24T08:21:35;25.40;98.40
32865;DHT22;19219;44.500;11.188;2023-04-24T08:24:01;25.40;97.90
32865;DHT22;19219;44.500;11.188;2023-04-24T08:26:30;25.20;98.20
32865;DHT22;19219;44.500;11.188;2023-04-24T08:28:56;25.30;98.40
32865;DHT22;19219;44.500;11.188;2023-04-24T08:31:22;25.20;99.30
32865;DHT22;19219;44.500;11.188;2023-04-24T08:33:50;24.50;98.30
32865;DHT22;19219;44.500;11.188;2023-04-24T08:36:15;24.10;99.20
32865;DHT22;19219;44.500;11.188;2023-04-24T08:38:42;23.80;99.90
32865;DHT22;19219;44.500;11.188;2023-04-24T08:41:09;23.00;99.90
32865;DHT22;19219;44.500;11.188;2023-04-24T08:43:35;22.50;99.90
32865;DHT22;19219;44.500;11.188;2023-04-24T08:46:04;22.50;99.90
32865;DHT22;19219;44.500;11.188;2023-04-24T08:48:30;22.10;99.90
32865;DHT22;19219;44.500;11.188;2023-04-24T08:50:57;21.80;99.90
32865;DHT22;19219;44.500;11.188;2023-04-24T08:53:24;21.40;99.90
32865;DHT22;19219;44.500;11.188;2023-04-24T08:55:51;21.50;99.90
32865;DHT22;19219;44.500;11.188;2023-04-24T08:58:17;20.70;99.90
32865;DHT22;19219;44.500;11.188;2023-04-24T09:00:43;20.90;99.90
32865;DHT22;19219;44.500;11.188;2023-04-24T09:03:13;21.00;99.90
32865;DHT22;19219;44.500;11.188;2023-04-24T09:05:42;20.90;99.90
32865;DHT22;19219;44.500;11.188;2023-04-24T09:08:11;21.10;99.90
32865;DHT22;19219;44.500;11.188;2023-04-24T09:10:39;21.40;99.90
32865;DHT22;19219;44.500;11.188;2023-04-24T09:13:05;21.30;99.90
32865;DHT22;19219;44.500;11.188;2023-04-24T09:15:31;21.40;99.90
32865;DHT22;19219;44.500;11.188;2023-04-24T09:17:57;21.30;99.90
32865;DHT22;19219;44.500;11.188;2023-04-24T09:20:23;21.20;99.90
32865;DHT22;19219;44.500;11.188;2023-04-24T09:22:54;20.80;99.90
32865;DHT22;19219;44.500;11.188;2023-04-24T09:25:20;21.10;99.90
32865;DHT22;19219;44.500;11.188;2023-04-24T09:27:46;21.00;99.90
32865;DHT22;19219;44.500;11.188;2023-04-24T09:30:13;21.10;99.90
32865;DHT22;19219;44.500;11.188;2023-04-24T09:32:39;21.10;99.90
32865;DHT22;19219;44.500;11.188;2023-04-24T09:37:36;21.30;99.90
32865;DHT22;19219;44.500;11.188;2023-04-24T09:40:13;21.00;99.90
32865;DHT22;19219;44.500;11.188;2023-04-24T09:42:39;21.00;99.90
32865;DHT22;19219;44.500;11.188;2023-04-24T09:45:14;20.80;99.90
32865;DHT22;19219;44.500;11.188;2023-04-24T09:47:41;20.90;99.90
32865;DHT22;19219;44.500;11.188;2023-04-24T09:50:15;21.10;99.90
32865;DHT22;19219;44.500;11.188;2023-04-24T09:52:45;21.20;99.90
32865;DHT22;19219;44.500;11.188;2023-04-24T09:55:18;21.10;99.90
32865;DHT22;19219;44.500;11.188;2023-04-24T09:57:58;21.10;99.90
32865;DHT22;19219;44.500;11.188;2023-04-24T10:00:27;21.40;99.90
32865;DHT22;19219;44.500;11.188;2023-04-24T10:03:04;22.10;99.90
32865;DHT22;19219;44.500;11.188;2023-04-24T10:05:32;22.50;99.90
32865;DHT22;19219;44.500;11.188;2023-04-24T10:08:09;22.70;99.90
32865;DHT22;19219;44.500;11.188;2023-04-24T10:10:39;22.80;99.90
32865;DHT22;19219;44.500;11.188;2023-04-24T10:13:07;22.90;99.90
32865;DHT22;19219;44.500;11.188;2023-04-24T10:15:33;22.80;99.90
32865;DHT22;19219;44.500;11.188;2023-04-24T10:17:59;22.60;99.90
32865;DHT22;19219;44.500;11.188;2023-04-24T10:20:27;23.00;99.90
32865;DHT22;19219;44.500;11.188;2023-04-24T10:22:57;23.10;99.90
32865;DHT22;19219;44.500;11.188;2023-04-24T10:25:26;23.00;99.90
32865;DHT22;19219;44.500;11.188;2023-04-24T10:27:53;23.00;99.90
32865;DHT22;19219;44.500;11.188;2023-04-24T10:30:19;23.30;99.90
32865;DHT22;19219;44.500;11.188;2023-04-24T10:32:46;23.50;99.90
32865;DHT22;19219;44.500;11.188;2023-04-24T10:35:13;23.80;99.90
32865;DHT22;19219;44.500;11.188;2023-04-24T10:38:02;23.70;99.90
32865;DHT22;19219;44.500;11.188;2023-04-24T10:40:33;23.60;99.90
32865;DHT22;19219;44.500;11.188;2023-04-24T10:43:01;23.50;99.90
32865;DHT22;19219;44.500;11.188;2023-04-24T10:45:27;23.40;99.90
32865;DHT22;19219;44.500;11.188;2023-04-24T10:50:19;23.50;99.90
32865;DHT22;19219;44.500;11.188;2023-04-24T10:52:48;23.40;99.90
32865;DHT22;19219;44.500;11.188;2023-04-24T10:55:24;23.30;99.90
32865;DHT22;19219;44.500;11.188;2023-04-24T10:58:03;23.40;99.90
32865;DHT22;19219;44.500;11.188;2023-04-24T11:00:29;23.50;99.90
32865;DHT22;19219;44.500;11.188;2023-04-24T11:02:55;23.20;99.90
32865;DHT22;19219;44.500;11.188;2023-04-24T11:05:22;23.20;99.90
32865;DHT22;19219;44.500;11.188;2023-04-24T11:08:22;23.30;99.90
32865;DHT22;19219;44.500;11.188;2023-04-24T11:10:58;23.50;99.90
32865;DHT22;19219;44.500;11.188;2023-04-24T11:13:26;23.40;99.90
32865;DHT22;19219;44.500;11.188;2023-04-24T11:18:59;23.30;99.90
32865;DHT22;19219;44.500;11.188;2023-04-24T11:21:25;23.20;99.90
32865;DHT22;19219;44.500;11.188;2023-04-24T11:23:51;23.20;99.90
32865;DHT22;19219;44.500;11.188;2023-04-24T11:26:21;23.10;99.90
32865;DHT22;19219;44.500;11.188;2023-04-24T11:28:50;23.00;99.90
32865;DHT22;19219;44.500;11.188;2023-04-24T11:31:39;23.00;99.90
32865;DHT22;19219;44.500;11.188;2023-04-24T11:36:35;23.30;99.90
32865;DHT22;19219;44.500;11.188;2023-04-24T11:39:01;23.50;99.90
32865;DHT22;19219;44.500;11.188;2023-04-24T11:41:28;23.40;99.90
32865;DHT22;19219;44.500;11.188;2023-04-24T11:43:54;23.00;99.90
32865;DHT22;19219;44.500;11.188;2023-04-24T11:46:21;23.10;99.90
32865;DHT22;19219;44.500;11.188;2023-04-24T11:48:47;23.10;99.90
32865;DHT22;19219;44.500;11.188;2023-04-24T11:51:13;22.90;99.90
32865;DHT22;19219;44.500;11.188;2023-04-24T11:53:39;22.90;99.90
32865;DHT22;19219;44.500;11.188;2023-04-24T11:56:08;23.00;99.90
32865;DHT22;19219;44.500;11.188;2023-04-24T11:58:38;23.10;99.90
32865;DHT22;19219;44.500;11.188;2023-04-24T12:01:05;23.10;99.90
32865;DHT22;19219;44.500;11.188;2023-04-24T12:03:31;23.20;99.90
32865;DHT22;19219;44.500;11.188;2023-04-24T12:06:10;23.20;99.90
32865;DHT22;19219;44.500;11.188;2023-04-24T12:08:37;23.10;99.90
32865;DHT22;19219;44.500;11.188;2023-04-24T12:11:04;23.20;99.90
32865;DHT22;19219;44.500;11.188;2023-04-24T12:13:33;23.10;99.90
32865;DHT22;19219;44.500;11.188;2023-04-24T12:16:01;23.20;99.90
32865;DHT22;19219;44.500;11.188;2023-04-24T12:18:27;23.10;99.90
32865;DHT22;19219;44.500;11.188;2023-04-24T12:20:52;23.00;99.90
32865;DHT22;19219;44.500;11.188;2023-04-24T12:23:37;22.80;99.90
32865;DHT22;19219;44.500;11.188;2023-04-24T12:26:05;22.80;99.90
32865;DHT22;19219;44.500;11.188;2023-04-24T12:28:39;22.80;99.90
32865;DHT22;19219;44.500;11.188;2023-04-24T12:31:06;22.80;99.90
32865;DHT22;19219;44.500;11.188;2023-04-24T12:33:35;22.90;99.90
32865;DHT22;19219;44.500;11.188;2023-04-24T12:36:01;23.00;99.90
32865;DHT22;19219;44.500;11.188;2023-04-24T12:38:28;23.20;99.90
32865;DHT22;19219;44.500;11.188;2023-04-24T12:41:07;23.20;99.90
32865;DHT22;19219;44.500;11.188;2023-04-24T12:43:33;23.30;99.90
32865;DHT22;19219;44.500;11.188;2023-04-24T12:45:59;23.40;99.90
32865;DHT22;19219;44.500;11.188;2023-04-24T12:48:28;23.40;99.90
32865;DHT22;19219;44.500;11.188;2023-04-24T12:50:56;23.40;99.90
32865;DHT22;19219;44.500;11.188;2023-04-24T12:53:22;23.40;99.90
32865;DHT22;19219;44.500;11.188;2023-04-24T12:55:48;23.50;99.90
32865;DHT22;19219;44.500;11.188;2023-04-24T12:58:21;23.70;99.90
32865;DHT22;19219;44.500;11.188;2023-04-24T13:00:47;23.70;99.90
32865;DHT22;19219;44.500;11.188;2023-04-24T13:03:13;23.50;99.90
32865;DHT22;19219;44.500;11.188;2023-04-24T13:05:39;23.30;99.90
32865;DHT22;19219;44.500;11.188;2023-04-24T13:08:05;23.30;99.90
32865;DHT22;19219;44.500;11.188;2023-04-24T13:10:31;23.50;99.90
32865;DHT22;19219;44.500;11.188;2023-04-24T13:12:57;23.40;99.90
32865;DHT22;19219;44.500;11.188;2023-04-24T13:15:22;23.40;99.80
32865;DHT22;19219;44.500;11.188;2023-04-24T13:17:48;23.40;99.90
32865;DHT22;19219;44.500;11.188;2023-04-24T13:20:14;23.60;99.90
32865;DHT22;19219;44.500;11.188;2023-04-24T13:22:40;23.80;99.90
32865;DHT22;19219;44.500;11.188;2023-04-24T13:25:06;23.90;99.90
32865;DHT22;19219;44.500;11.188;2023-04-24T13:27:32;23.80;99.60
32865;DHT22;19219;44.500;11.188;2023-04-24T13:29:58;23.70;99.90
32865;DHT22;19219;44.500;11.188;2023-04-24T13:32:24;23.70;99.90
32865;DHT22;19219;44.500;11.188;2023-04-24T13:34:50;23.80;99.90
32865;DHT22;19219;44.500;11.188;2023-04-24T13:37:16;24.00;99.90
32865;DHT22;19219;44.500;11.188;2023-04-24T13:39:42;24.00;99.10
32865;DHT22;19219;44.500;11.188;2023-04-24T13:42:08;23.90;98.50
32865;DHT22;19219;44.500;11.188;2023-04-24T13:44:33;23.70;98.30
32865;DHT22;19219;44.500;11.188;2023-04-24T13:47:00;23.50;97.00
32865;DHT22;19219;44.500;11.188;2023-04-24T13:49:26;23.30;97.00
32865;DHT22;19219;44.500;11.188;2023-04-24T13:51:53;23.40;97.10
32865;DHT22;19219;44.500;11.188;2023-04-24T13:54:19;23.50;97.30
32865;DHT22;19219;44.500;11.188;2023-04-24T13:56:44;23.60;97.80
32865;DHT22;19219;44.500;11.188;2023-04-24T13:59:12;23.50;98.10
32865;DHT22;19219;44.500;11.188;2023-04-24T14:01:37;23.50;97.80
32865;DHT22;19219;44.500;11.188;2023-04-24T14:04:03;23.50;97.80
32865;DHT22;19219;44.500;11.188;2023-04-24T14:06:29;23.50;98.00
32865;DHT22;19219;44.500;11.188;2023-04-24T14:08:55;23.80;97.10
32865;DHT22;19219;44.500;11.188;2023-04-24T14:11:20;24.00;98.10
32865;DHT22;19219;44.500;11.188;2023-04-24T14:13:46;23.90;96.90
32865;DHT22;19219;44.500;11.188;2023-04-24T14:16:12;23.80;96.50
32865;DHT22;19219;44.500;11.188;2023-04-24T14:18:38;23.60;95.80
32865;DHT22;19219;44.500;11.188;2023-04-24T14:21:04;23.70;96.60
32865;DHT22;19219;44.500;11.188;2023-04-24T14:23:30;24.00;96.60
32865;DHT22;19219;44.500;11.188;2023-04-24T14:25:56;24.30;96.70
32865;DHT22;19219;44.500;11.188;2023-04-24T14:28:22;24.50;95.60
32865;DHT22;19219;44.500;11.188;2023-04-24T14:30:48;24.60;95.20
32865;DHT22;19219;44.500;11.188;2023-04-24T14:33:14;24.60;95.70
32865;DHT22;19219;44.500;11.188;2023-04-24T14:35:40;24.50;95.60
32865;DHT22;19219;44.500;11.188;2023-04-24T14:38:07;24.40;95.80
32865;DHT22;19219;44.500;11.188;2023-04-24T14:40:33;24.40;96.30
32865;DHT22;19219;44.500;11.188;2023-04-24T14:42:59;24.50;95.90
32865;DHT22;19219;44.500;11.188;2023-04-24T14:45:25;24.40;96.00
32865;DHT22;19219;44.500;11.188;2023-04-24T14:47:51;24.10;97.30
32865;DHT22;19219;44.500;11.188;2023-04-24T14:50:16;24.20;98.30
32865;DHT22;19219;44.500;11.188;2023-04-24T14:52:42;24.30;98.20
32865;DHT22;19219;44.500;11.188;2023-04-24T14:55:08;24.60;98.00
32865;DHT22;19219;44.500;11.188;2023-04-24T14:57:34;24.60;96.80
32865;DHT22;19219;44.500;11.188;2023-04-24T15:00:02;24.70;97.30
32865;DHT22;19219;44.500;11.188;2023-04-24T15:02:28;24.80;97.10
32865;DHT22;19219;44.500;11.188;2023-04-24T15:04:54;24.60;96.50
32865;DHT22;19219;44.500;11.188;2023-04-24T15:07:20;24.50;97.60
32865;DHT22;19219;44.500;11.188;2023-04-24T15:09:46;24.30;97.40
32865;DHT22;19219;44.500;11.188;2023-04-24T15:12:13;24.30;97.50
32865;DHT22;19219;44.500;11.188;2023-04-24T15:14:38;24.50;98.30
32865;DHT22;19219;44.500;11.188;2023-04-24T15:17:04;24.70;99.20
32865;DHT22;19219;44.500;11.188;2023-04-24T15:19:30;24.70;98.30
32865;DHT22;19219;44.500;11.188;2023-04-24T15:21:56;24.50;98.20
32865;DHT22;19219;44.500;11.188;2023-04-24T15:24:21;24.40;98.30